Time;durP1;ratioP1;P1;durP2;ratioP2;P2;SDS_P1;SDS_P2;PMS_P1;PMS_P2;Temp;Humidity;BMP_temperature;BMP_pressure;BME280_temperature;BME280_humidity;BME280_pressure;Samples;Min_cycle;Max_cycle;Signal;HPM_P1;HPM_P2
2022/09/28 00:00:00;;;;;;;1.1;1.1;;;;;;;8.9;100.0;99360;;;;
2022/09/28 00:01:08;;;;;;;1.1;1.1;;;;;;;8.8;100.0;99350;;;;
2022/09/28 00:02:00;;;;;;;1.1;1.1;;;;;;;8.8;100.0;99350;;;;
2022/09/28 00:03:00;;;;;;;1.1;1.1;;;;;;;8.8;100.0;99350;;;;
2022/09/28 00:04:00;;;;;;;1.1;1.1;;;;;;;8.7;100.0;99350;;;;
2022/09/28 00:05:01;;;;;;;1.1;1.1;;;;;;;8.7;100.0;99350;;;;
2022/09/28 00:06:04;;;;;;;1.2;1.2;;;;;;;8.8;100.0;99350;;;;
2022/09/28 00:07:00;;;;;;;1.2;1.2;;;;;;;8.8;100.0;99350;;;;
2022/09/28 00:08:00;;;;;;;1.2;1.2;;;;;;;8.7;100.0;99350;;;;
2022/09/28 00:09:00;;;;;;;1.2;1.2;;;;;;;8.7;100.0;99350;;;;
2022/09/28 00:10:00;;;;;;;1.2;1.2;;;;;;;8.7;100.0;99350;;;;
2022/09/28 00:11:01;;;;;;;1.2;1.2;;;;;;;8.7;100.0;99350;;;;
2022/09/28 00:12:00;;;;;;;1.2;1.2;;;;;;;8.8;100.0;99350;;;;
2022/09/28 00:13:00;;;;;;;1.2;1.2;;;;;;;8.8;100.0;99350;;;;
2022/09/28 00:14:02;;;;;;;1.2;1.2;;;;;;;8.8;100.0;99350;;;;
2022/09/28 00:15:00;;;;;;;1.2;1.2;;;;;;;8.8;100.0;99350;;;;
2022/09/28 00:16:03;;;;;;;1.2;1.2;;;;;;;8.8;100.0;99350;;;;
2022/09/28 00:17:00;;;;;;;1.2;1.2;;;;;;;8.8;100.0;99350;;;;
2022/09/28 00:18:00;;;;;;;1.2;1.2;;;;;;;8.7;100.0;99340;;;;
2022/09/28 00:19:00;;;;;;;1.2;1.2;;;;;;;8.7;100.0;99340;;;;
2022/09/28 00:20:01;;;;;;;1.2;1.2;;;;;;;8.6;100.0;99340;;;;
2022/09/28 00:21:00;;;;;;;1.2;1.2;;;;;;;8.6;100.0;99340;;;;
2022/09/28 00:22:00;;;;;;;1.2;1.2;;;;;;;8.6;100.0;99340;;;;
2022/09/28 00:23:00;;;;;;;1.2;1.2;;;;;;;8.6;100.0;99340;;;;
2022/09/28 00:25:00;;;;;;;1.5;1.5;;;;;;;8.6;100.0;99340;;;;
2022/09/28 00:26:01;;;;;;;1.5;1.5;;;;;;;8.6;100.0;99340;;;;
2022/09/28 00:27:01;;;;;;;1.5;1.5;;;;;;;8.6;100.0;99340;;;;
2022/09/28 00:28:00;;;;;;;1.5;1.5;;;;;;;8.6;100.0;99340;;;;
2022/09/28 00:29:00;;;;;;;1.5;1.5;;;;;;;8.6;100.0;99340;;;;
2022/09/28 00:30:00;;;;;;;1.5;1.5;;;;;;;8.6;100.0;99340;;;;
2022/09/28 00:31:00;;;;;;;1.5;1.5;;;;;;;8.6;100.0;99340;;;;
2022/09/28 00:32:02;;;;;;;1.5;1.5;;;;;;;8.6;100.0;99340;;;;
2022/09/28 00:33:00;;;;;;;1.5;1.5;;;;;;;8.6;100.0;99340;;;;
2022/09/28 00:34:00;;;;;;;1.5;1.5;;;;;;;8.5;100.0;99330;;;;
2022/09/28 00:35:00;;;;;;;1.5;1.5;;;;;;;8.5;100.0;99330;;;;
2022/09/28 00:36:00;;;;;;;1.5;1.5;;;;;;;8.6;100.0;99330;;;;
2022/09/28 00:37:01;;;;;;;1.5;1.5;;;;;;;8.6;100.0;99330;;;;
2022/09/28 00:38:01;;;;;;;1.5;1.5;;;;;;;8.5;100.0;99340;;;;
2022/09/28 00:39:04;;;;;;;1.5;1.5;;;;;;;8.5;100.0;99340;;;;
2022/09/28 00:40:00;;;;;;;1.5;1.5;;;;;;;8.6;100.0;99330;;;;
2022/09/28 00:41:00;;;;;;;1.5;1.5;;;;;;;8.6;100.0;99330;;;;
2022/09/28 00:42:00;;;;;;;1.5;1.5;;;;;;;8.6;100.0;99330;;;;
2022/09/28 00:43:10;;;;;;;1.5;1.5;;;;;;;8.6;100.0;99330;;;;
2022/09/28 00:44:10;;;;;;;1.5;1.5;;;;;;;8.6;100.0;99330;;;;
2022/09/28 00:45:00;;;;;;;1.3;1.3;;;;;;;8.6;100.0;99330;;;;
2022/09/28 00:46:03;;;;;;;1.3;1.3;;;;;;;8.6;100.0;99330;;;;
2022/09/28 00:47:00;;;;;;;1.3;1.3;;;;;;;8.6;100.0;99330;;;;
2022/09/28 00:48:00;;;;;;;1.3;1.3;;;;;;;8.6;100.0;99330;;;;
2022/09/28 00:49:02;;;;;;;1.3;1.3;;;;;;;8.6;100.0;99330;;;;
2022/09/28 00:50:02;;;;;;;1.3;1.3;;;;;;;8.6;100.0;99320;;;;
2022/09/28 00:51:04;;;;;;;1.3;1.3;;;;;;;8.6;100.0;99320;;;;
2022/09/28 00:52:00;;;;;;;1.3;1.3;;;;;;;8.5;100.0;99320;;;;
2022/09/28 00:53:04;;;;;;;1.3;1.3;;;;;;;8.5;100.0;99320;;;;
2022/09/28 00:54:02;;;;;;;1.3;1.3;;;;;;;8.5;100.0;99320;;;;
2022/09/28 00:55:02;;;;;;;1.3;1.3;;;;;;;8.5;100.0;99320;;;;
2022/09/28 00:56:02;;;;;;;1.3;1.3;;;;;;;8.5;100.0;99320;;;;
2022/09/28 00:57:01;;;;;;;1.3;1.3;;;;;;;8.5;100.0;99320;;;;
2022/09/28 00:58:02;;;;;;;1.3;1.3;;;;;;;8.5;100.0;99320;;;;
2022/09/28 00:59:00;;;;;;;1.3;1.3;;;;;;;8.5;100.0;99320;;;;
2022/09/28 01:00:00;;;;;;;1.3;1.3;;;;;;;8.6;100.0;99320;;;;
2022/09/28 01:01:01;;;;;;;1.3;1.3;;;;;;;8.6;100.0;99320;;;;
2022/09/28 01:02:01;;;;;;;1.3;1.3;;;;;;;8.6;100.0;99320;;;;
2022/09/28 01:03:00;;;;;;;1.3;1.3;;;;;;;8.6;100.0;99320;;;;
2022/09/28 01:04:01;;;;;;;1.3;1.3;;;;;;;8.6;100.0;99320;;;;
2022/09/28 01:05:02;;;;;;;1.2;1.2;;;;;;;8.6;100.0;99320;;;;
2022/09/28 01:06:01;;;;;;;1.2;1.2;;;;;;;8.5;100.0;99320;;;;
2022/09/28 01:07:00;;;;;;;1.2;1.2;;;;;;;8.5;100.0;99320;;;;
2022/09/28 01:08:00;;;;;;;1.2;1.2;;;;;;;8.6;100.0;99320;;;;
2022/09/28 01:09:03;;;;;;;1.2;1.2;;;;;;;8.6;100.0;99320;;;;
2022/09/28 01:10:00;;;;;;;1.2;1.2;;;;;;;8.6;100.0;99320;;;;
2022/09/28 01:11:00;;;;;;;1.2;1.2;;;;;;;8.6;100.0;99320;;;;
2022/09/28 01:12:00;;;;;;;1.2;1.2;;;;;;;8.5;100.0;99320;;;;
2022/09/28 01:13:00;;;;;;;1.2;1.2;;;;;;;8.5;100.0;99320;;;;
2022/09/28 01:14:00;;;;;;;1.2;1.2;;;;;;;8.6;100.0;99320;;;;
2022/09/28 01:15:00;;;;;;;1.2;1.2;;;;;;;8.6;100.0;99320;;;;
2022/09/28 01:16:01;;;;;;;1.2;1.2;;;;;;;8.6;100.0;99320;;;;
2022/09/28 01:17:05;;;;;;;1.2;1.2;;;;;;;8.6;100.0;99320;;;;
2022/09/28 01:18:06;;;;;;;1.2;1.2;;;;;;;8.7;100.0;99320;;;;
2022/09/28 01:19:10;;;;;;;1.2;1.2;;;;;;;8.6;100.0;99320;;;;
2022/09/28 01:20:10;;;;;;;1.2;1.2;;;;;;;8.6;100.0;99320;;;;
2022/09/28 01:21:04;;;;;;;1.2;1.2;;;;;;;8.6;100.0;99320;;;;
2022/09/28 01:22:10;;;;;;;1.2;1.2;;;;;;;8.6;100.0;99320;;;;
2022/09/28 01:23:05;;;;;;;1.2;1.2;;;;;;;8.6;100.0;99320;;;;
2022/09/28 01:24:10;;;;;;;1.2;1.2;;;;;;;8.6;100.0;99310;;;;
2022/09/28 01:25:07;;;;;;;1.3;1.3;;;;;;;8.6;100.0;99310;;;;
2022/09/28 01:26:10;;;;;;;1.3;1.3;;;;;;;8.6;100.0;99310;;;;
2022/09/28 01:27:10;;;;;;;1.3;1.3;;;;;;;8.6;100.0;99310;;;;
2022/09/28 01:28:05;;;;;;;1.3;1.3;;;;;;;8.6;100.0;99310;;;;
2022/09/28 01:29:04;;;;;;;1.3;1.3;;;;;;;8.6;100.0;99310;;;;
2022/09/28 01:30:00;;;;;;;1.3;1.3;;;;;;;8.6;100.0;99310;;;;
2022/09/28 01:31:10;;;;;;;1.3;1.3;;;;;;;8.6;100.0;99310;;;;
2022/09/28 01:32:05;;;;;;;1.3;1.3;;;;;;;8.6;100.0;99310;;;;
2022/09/28 01:33:03;;;;;;;1.3;1.3;;;;;;;8.6;100.0;99310;;;;
2022/09/28 01:34:03;;;;;;;1.3;1.3;;;;;;;8.5;100.0;99310;;;;
2022/09/28 01:35:01;;;;;;;1.3;1.3;;;;;;;8.5;100.0;99310;;;;
2022/09/28 01:36:06;;;;;;;1.3;1.3;;;;;;;8.4;100.0;99310;;;;
2022/09/28 01:37:03;;;;;;;1.3;1.3;;;;;;;8.4;100.0;99310;;;;
2022/09/28 01:38:03;;;;;;;1.3;1.3;;;;;;;8.3;100.0;99320;;;;
2022/09/28 01:39:04;;;;;;;1.3;1.3;;;;;;;8.3;100.0;99320;;;;
2022/09/28 01:40:02;;;;;;;1.3;1.3;;;;;;;8.2;100.0;99320;;;;
2022/09/28 01:41:00;;;;;;;1.3;1.3;;;;;;;8.2;100.0;99320;;;;
2022/09/28 01:42:03;;;;;;;1.3;1.3;;;;;;;8.3;100.0;99320;;;;
2022/09/28 01:43:04;;;;;;;1.3;1.3;;;;;;;8.3;100.0;99320;;;;
2022/09/28 01:44:02;;;;;;;1.3;1.3;;;;;;;8.3;100.0;99330;;;;
2022/09/28 01:45:04;;;;;;;1.8;1.7;;;;;;;8.3;100.0;99330;;;;
2022/09/28 01:46:05;;;;;;;1.8;1.7;;;;;;;8.3;100.0;99330;;;;
2022/09/28 01:47:03;;;;;;;1.8;1.7;;;;;;;8.3;100.0;99330;;;;
2022/09/28 01:48:02;;;;;;;1.8;1.7;;;;;;;8.3;100.0;99330;;;;
2022/09/28 01:49:10;;;;;;;1.8;1.7;;;;;;;8.4;100.0;99320;;;;
2022/09/28 01:50:04;;;;;;;1.8;1.7;;;;;;;8.4;100.0;99320;;;;
2022/09/28 01:51:02;;;;;;;1.8;1.7;;;;;;;8.4;100.0;99320;;;;
2022/09/28 01:52:10;;;;;;;1.8;1.7;;;;;;;8.3;100.0;99320;;;;
2022/09/28 01:53:03;;;;;;;1.8;1.7;;;;;;;8.3;100.0;99320;;;;
2022/09/28 01:54:04;;;;;;;1.8;1.7;;;;;;;8.4;100.0;99320;;;;
2022/09/28 01:55:05;;;;;;;1.8;1.7;;;;;;;8.4;100.0;99320;;;;
2022/09/28 01:56:04;;;;;;;1.8;1.7;;;;;;;8.3;100.0;99320;;;;
2022/09/28 01:57:04;;;;;;;1.8;1.7;;;;;;;8.3;100.0;99320;;;;
2022/09/28 01:58:03;;;;;;;1.8;1.7;;;;;;;8.3;100.0;99320;;;;
2022/09/28 01:59:10;;;;;;;1.8;1.7;;;;;;;8.3;100.0;99320;;;;
2022/09/28 02:00:03;;;;;;;1.8;1.7;;;;;;;8.3;100.0;99320;;;;
2022/09/28 02:01:03;;;;;;;1.8;1.7;;;;;;;8.3;100.0;99320;;;;
2022/09/28 02:02:06;;;;;;;1.8;1.7;;;;;;;8.3;100.0;99320;;;;
2022/09/28 02:03:00;;;;;;;1.8;1.7;;;;;;;8.3;100.0;99320;;;;
2022/09/28 02:04:04;;;;;;;1.8;1.7;;;;;;;8.3;100.0;99320;;;;
2022/09/28 02:05:06;;;;;;;1.2;1.2;;;;;;;8.2;100.0;99320;;;;
2022/09/28 02:06:04;;;;;;;1.2;1.2;;;;;;;8.2;100.0;99320;;;;
2022/09/28 02:07:03;;;;;;;1.2;1.2;;;;;;;8.2;100.0;99320;;;;
2022/09/28 02:08:04;;;;;;;1.2;1.2;;;;;;;8.2;100.0;99310;;;;
2022/09/28 02:09:06;;;;;;;1.2;1.2;;;;;;;8.1;100.0;99310;;;;
2022/09/28 02:10:04;;;;;;;1.2;1.2;;;;;;;8.1;100.0;99310;;;;
2022/09/28 02:11:10;;;;;;;1.2;1.2;;;;;;;8.2;100.0;99310;;;;
2022/09/28 02:12:03;;;;;;;1.2;1.2;;;;;;;8.2;100.0;99310;;;;
2022/09/28 02:13:04;;;;;;;1.2;1.2;;;;;;;8.2;100.0;99310;;;;
2022/09/28 02:14:03;;;;;;;1.2;1.2;;;;;;;8.2;100.0;99310;;;;
2022/09/28 02:15:05;;;;;;;1.2;1.2;;;;;;;8.2;100.0;99310;;;;
2022/09/28 02:16:00;;;;;;;1.2;1.2;;;;;;;8.2;100.0;99310;;;;
2022/09/28 02:17:00;;;;;;;1.2;1.2;;;;;;;8.2;100.0;99310;;;;
2022/09/28 02:18:00;;;;;;;1.2;1.2;;;;;;;8.2;100.0;99310;;;;
2022/09/28 02:19:01;;;;;;;1.2;1.2;;;;;;;8.2;100.0;99310;;;;
2022/09/28 02:20:00;;;;;;;1.2;1.2;;;;;;;8.2;100.0;99310;;;;
2022/09/28 02:21:05;;;;;;;1.2;1.2;;;;;;;8.2;100.0;99310;;;;
2022/09/28 02:22:01;;;;;;;1.2;1.2;;;;;;;8.2;100.0;99310;;;;
2022/09/28 02:23:01;;;;;;;1.2;1.2;;;;;;;8.2;100.0;99310;;;;
2022/09/28 02:24:06;;;;;;;1.2;1.2;;;;;;;8.2;100.0;99310;;;;
2022/09/28 02:25:10;;;;;;;1.3;1.3;;;;;;;8.2;100.0;99310;;;;
2022/09/28 02:26:02;;;;;;;1.3;1.3;;;;;;;8.2;100.0;99310;;;;
2022/09/28 02:27:08;;;;;;;1.3;1.3;;;;;;;8.2;100.0;99320;;;;
2022/09/28 02:28:00;;;;;;;1.3;1.3;;;;;;;8.2;100.0;99320;;;;
2022/09/28 02:29:00;;;;;;;1.3;1.3;;;;;;;8.2;100.0;99320;;;;
2022/09/28 02:30:01;;;;;;;1.3;1.3;;;;;;;8.2;100.0;99320;;;;
2022/09/28 02:31:00;;;;;;;1.3;1.3;;;;;;;8.2;100.0;99320;;;;
2022/09/28 02:32:00;;;;;;;1.3;1.3;;;;;;;8.2;100.0;99320;;;;
2022/09/28 02:33:02;;;;;;;1.3;1.3;;;;;;;8.2;100.0;99320;;;;
2022/09/28 02:34:00;;;;;;;1.3;1.3;;;;;;;8.2;100.0;99320;;;;
2022/09/28 02:35:00;;;;;;;1.3;1.3;;;;;;;8.2;100.0;99320;;;;
2022/09/28 02:36:00;;;;;;;1.3;1.3;;;;;;;8.2;100.0;99320;;;;
2022/09/28 02:37:00;;;;;;;1.3;1.3;;;;;;;8.2;100.0;99320;;;;
2022/09/28 02:38:00;;;;;;;1.3;1.3;;;;;;;8.2;100.0;99330;;;;
2022/09/28 02:39:01;;;;;;;1.3;1.3;;;;;;;8.2;100.0;99330;;;;
2022/09/28 02:40:00;;;;;;;1.3;1.3;;;;;;;8.2;100.0;99330;;;;
2022/09/28 02:41:10;;;;;;;1.3;1.3;;;;;;;8.3;100.0;99320;;;;
2022/09/28 02:42:10;;;;;;;1.3;1.3;;;;;;;8.3;100.0;99320;;;;
2022/09/28 02:43:08;;;;;;;1.3;1.3;;;;;;;8.3;100.0;99320;;;;
2022/09/28 02:44:00;;;;;;;1.3;1.3;;;;;;;8.3;100.0;99320;;;;
2022/09/28 02:45:10;;;;;;;1.3;1.3;;;;;;;8.5;100.0;99320;;;;
2022/09/28 02:46:00;;;;;;;1.3;1.3;;;;;;;8.5;100.0;99320;;;;
2022/09/28 02:47:09;;;;;;;1.3;1.3;;;;;;;8.4;100.0;99320;;;;
2022/09/28 02:48:10;;;;;;;1.3;1.3;;;;;;;8.4;100.0;99320;;;;
2022/09/28 02:49:10;;;;;;;1.3;1.3;;;;;;;8.4;100.0;99320;;;;
2022/09/28 02:50:01;;;;;;;1.3;1.3;;;;;;;8.4;100.0;99320;;;;
2022/09/28 02:51:06;;;;;;;1.3;1.3;;;;;;;8.4;100.0;99320;;;;
2022/09/28 02:52:09;;;;;;;1.3;1.3;;;;;;;8.4;100.0;99320;;;;
2022/09/28 02:53:01;;;;;;;1.3;1.3;;;;;;;8.4;100.0;99320;;;;
2022/09/28 02:54:10;;;;;;;1.3;1.3;;;;;;;8.3;100.0;99320;;;;
2022/09/28 02:55:10;;;;;;;1.3;1.3;;;;;;;8.5;100.0;99320;;;;
2022/09/28 02:56:10;;;;;;;1.3;1.3;;;;;;;8.5;100.0;99320;;;;
2022/09/28 02:57:09;;;;;;;1.3;1.3;;;;;;;8.4;100.0;99310;;;;
2022/09/28 02:58:07;;;;;;;1.3;1.3;;;;;;;8.4;100.0;99310;;;;
2022/09/28 02:59:03;;;;;;;1.3;1.3;;;;;;;8.4;100.0;99310;;;;
2022/09/28 03:00:09;;;;;;;1.3;1.3;;;;;;;8.4;100.0;99320;;;;
2022/09/28 03:01:00;;;;;;;1.3;1.3;;;;;;;8.4;100.0;99320;;;;
2022/09/28 03:02:01;;;;;;;1.3;1.3;;;;;;;8.4;100.0;99320;;;;
2022/09/28 03:03:00;;;;;;;1.3;1.3;;;;;;;8.4;100.0;99320;;;;
2022/09/28 03:04:07;;;;;;;1.3;1.3;;;;;;;8.4;100.0;99320;;;;
2022/09/28 03:05:05;;;;;;;1.1;1.1;;;;;;;8.4;100.0;99320;;;;
2022/09/28 03:06:04;;;;;;;1.1;1.1;;;;;;;8.4;100.0;99320;;;;
2022/09/28 03:07:05;;;;;;;1.1;1.1;;;;;;;8.4;100.0;99320;;;;
2022/09/28 03:08:02;;;;;;;1.1;1.1;;;;;;;8.3;100.0;99320;;;;
2022/09/28 03:09:04;;;;;;;1.1;1.1;;;;;;;8.3;100.0;99320;;;;
2022/09/28 03:10:02;;;;;;;1.1;1.1;;;;;;;8.4;100.0;99320;;;;
2022/09/28 03:11:06;;;;;;;1.1;1.1;;;;;;;8.3;100.0;99320;;;;
2022/09/28 03:12:04;;;;;;;1.1;1.1;;;;;;;8.3;100.0;99320;;;;
2022/09/28 03:13:01;;;;;;;1.1;1.1;;;;;;;8.3;100.0;99320;;;;
2022/09/28 03:14:00;;;;;;;1.1;1.1;;;;;;;8.3;100.0;99320;;;;
2022/09/28 03:15:09;;;;;;;1.1;1.1;;;;;;;8.2;100.0;99310;;;;
2022/09/28 03:16:10;;;;;;;1.1;1.1;;;;;;;8.2;100.0;99310;;;;
2022/09/28 03:17:00;;;;;;;1.1;1.1;;;;;;;8.2;100.0;99310;;;;
2022/09/28 03:18:00;;;;;;;1.1;1.1;;;;;;;8.3;100.0;99320;;;;
2022/09/28 03:19:00;;;;;;;1.1;1.1;;;;;;;8.3;100.0;99320;;;;
2022/09/28 03:20:00;;;;;;;1.1;1.1;;;;;;;8.3;100.0;99320;;;;
2022/09/28 03:21:00;;;;;;;1.1;1.1;;;;;;;8.3;100.0;99320;;;;
2022/09/28 03:22:00;;;;;;;1.1;1.1;;;;;;;8.3;100.0;99310;;;;
2022/09/28 03:23:10;;;;;;;1.1;1.1;;;;;;;8.3;100.0;99320;;;;
2022/09/28 03:24:00;;;;;;;1.1;1.1;;;;;;;8.3;100.0;99320;;;;
2022/09/28 03:25:00;;;;;;;1.1;1.1;;;;;;;8.3;100.0;99320;;;;
2022/09/28 03:26:00;;;;;;;1.1;1.1;;;;;;;8.2;100.0;99320;;;;
2022/09/28 03:27:00;;;;;;;1.1;1.1;;;;;;;8.2;100.0;99320;;;;
2022/09/28 03:28:00;;;;;;;1.1;1.1;;;;;;;8.2;100.0;99320;;;;
2022/09/28 03:29:00;;;;;;;1.1;1.1;;;;;;;8.2;100.0;99320;;;;
2022/09/28 03:30:00;;;;;;;1.1;1.1;;;;;;;8.2;100.0;99320;;;;
2022/09/28 03:31:00;;;;;;;1.1;1.1;;;;;;;8.2;100.0;99320;;;;
2022/09/28 03:32:00;;;;;;;1.1;1.1;;;;;;;8.2;100.0;99320;;;;
2022/09/28 03:33:01;;;;;;;1.1;1.1;;;;;;;8.2;100.0;99320;;;;
2022/09/28 03:34:00;;;;;;;1.1;1.1;;;;;;;8.3;100.0;99320;;;;
2022/09/28 03:35:00;;;;;;;1.1;1.1;;;;;;;8.3;100.0;99320;;;;
2022/09/28 03:36:00;;;;;;;1.1;1.1;;;;;;;8.3;100.0;99320;;;;
2022/09/28 03:37:00;;;;;;;1.1;1.1;;;;;;;8.3;100.0;99320;;;;
2022/09/28 03:38:00;;;;;;;1.1;1.1;;;;;;;8.3;100.0;99320;;;;
2022/09/28 03:39:00;;;;;;;1.1;1.1;;;;;;;8.3;100.0;99320;;;;
2022/09/28 03:40:00;;;;;;;1.1;1.1;;;;;;;8.4;100.0;99320;;;;
2022/09/28 03:41:00;;;;;;;1.1;1.1;;;;;;;8.4;100.0;99320;;;;
2022/09/28 03:42:00;;;;;;;1.1;1.1;;;;;;;8.4;100.0;99320;;;;
2022/09/28 03:43:00;;;;;;;1.1;1.1;;;;;;;8.4;100.0;99320;;;;
2022/09/28 03:44:00;;;;;;;1.1;1.1;;;;;;;8.2;100.0;99330;;;;
2022/09/28 03:45:00;;;;;;;1.2;1.2;;;;;;;8.2;100.0;99330;;;;
2022/09/28 03:46:01;;;;;;;1.2;1.2;;;;;;;8.4;100.0;99320;;;;
2022/09/28 03:47:00;;;;;;;1.2;1.2;;;;;;;8.4;100.0;99320;;;;
2022/09/28 03:48:00;;;;;;;1.2;1.2;;;;;;;8.4;100.0;99320;;;;
2022/09/28 03:49:00;;;;;;;1.2;1.2;;;;;;;8.4;100.0;99320;;;;
2022/09/28 03:50:00;;;;;;;1.2;1.2;;;;;;;8.3;100.0;99320;;;;
2022/09/28 03:51:01;;;;;;;1.2;1.2;;;;;;;8.3;100.0;99320;;;;
2022/09/28 03:52:00;;;;;;;1.2;1.2;;;;;;;8.3;100.0;99320;;;;
2022/09/28 03:53:01;;;;;;;1.2;1.2;;;;;;;8.3;100.0;99320;;;;
2022/09/28 03:54:00;;;;;;;1.2;1.2;;;;;;;8.3;100.0;99320;;;;
2022/09/28 03:55:00;;;;;;;1.2;1.2;;;;;;;8.3;100.0;99320;;;;
2022/09/28 03:56:03;;;;;;;1.2;1.2;;;;;;;8.3;100.0;99330;;;;
2022/09/28 03:57:00;;;;;;;1.2;1.2;;;;;;;8.3;100.0;99330;;;;
2022/09/28 03:58:00;;;;;;;1.2;1.2;;;;;;;8.2;100.0;99330;;;;
2022/09/28 03:59:02;;;;;;;1.2;1.2;;;;;;;8.2;100.0;99330;;;;
2022/09/28 04:00:01;;;;;;;1.2;1.2;;;;;;;8.1;100.0;99330;;;;
2022/09/28 04:01:01;;;;;;;1.2;1.2;;;;;;;8.1;100.0;99330;;;;
2022/09/28 04:02:00;;;;;;;1.2;1.2;;;;;;;8.2;100.0;99330;;;;
2022/09/28 04:03:00;;;;;;;1.2;1.2;;;;;;;8.2;100.0;99330;;;;
2022/09/28 04:04:00;;;;;;;1.2;1.2;;;;;;;8.3;100.0;99330;;;;
2022/09/28 04:05:00;;;;;;;1.3;1.3;;;;;;;8.3;100.0;99330;;;;
2022/09/28 04:06:00;;;;;;;1.3;1.3;;;;;;;8.1;100.0;99340;;;;
2022/09/28 04:07:00;;;;;;;1.3;1.3;;;;;;;8.1;100.0;99340;;;;
2022/09/28 04:08:00;;;;;;;1.3;1.3;;;;;;;8.1;100.0;99330;;;;
2022/09/28 04:09:00;;;;;;;1.3;1.3;;;;;;;8.1;100.0;99330;;;;
2022/09/28 04:10:00;;;;;;;1.3;1.3;;;;;;;8.1;100.0;99330;;;;
2022/09/28 04:11:00;;;;;;;1.3;1.3;;;;;;;8.1;100.0;99330;;;;
2022/09/28 04:12:04;;;;;;;1.3;1.3;;;;;;;8.2;100.0;99330;;;;
2022/09/28 04:13:00;;;;;;;1.3;1.3;;;;;;;8.2;100.0;99330;;;;
2022/09/28 04:14:00;;;;;;;1.3;1.3;;;;;;;8.1;100.0;99330;;;;
2022/09/28 04:15:00;;;;;;;1.3;1.3;;;;;;;8.1;100.0;99330;;;;
2022/09/28 04:16:00;;;;;;;1.3;1.3;;;;;;;8.1;100.0;99330;;;;
2022/09/28 04:17:00;;;;;;;1.3;1.3;;;;;;;8.1;100.0;99330;;;;
2022/09/28 04:18:00;;;;;;;1.3;1.3;;;;;;;8.1;100.0;99330;;;;
2022/09/28 04:19:00;;;;;;;1.3;1.3;;;;;;;8.1;100.0;99330;;;;
2022/09/28 04:20:02;;;;;;;1.3;1.3;;;;;;;8.1;100.0;99320;;;;
2022/09/28 04:21:03;;;;;;;1.3;1.3;;;;;;;8.1;100.0;99320;;;;
2022/09/28 04:22:00;;;;;;;1.3;1.3;;;;;;;8.1;100.0;99320;;;;
2022/09/28 04:23:00;;;;;;;1.3;1.3;;;;;;;8.1;100.0;99320;;;;
2022/09/28 04:24:00;;;;;;;1.3;1.3;;;;;;;8.0;100.0;99320;;;;
2022/09/28 04:25:00;;;;;;;1.2;1.2;;;;;;;8.0;100.0;99320;;;;
2022/09/28 04:26:00;;;;;;;1.2;1.2;;;;;;;8.0;100.0;99320;;;;
2022/09/28 04:30:00;;;;;;;1.2;1.2;;;;;;;8.0;100.0;99320;;;;
2022/09/28 04:31:00;;;;;;;1.2;1.2;;;;;;;8.0;100.0;99320;;;;
2022/09/28 04:32:00;;;;;;;1.2;1.2;;;;;;;8.0;100.0;99320;;;;
2022/09/28 04:33:00;;;;;;;1.2;1.2;;;;;;;8.0;100.0;99320;;;;
2022/09/28 04:34:00;;;;;;;1.2;1.2;;;;;;;8.0;100.0;99320;;;;
2022/09/28 04:35:00;;;;;;;1.2;1.2;;;;;;;8.0;100.0;99320;;;;
2022/09/28 04:36:00;;;;;;;1.2;1.2;;;;;;;7.9;100.0;99320;;;;
2022/09/28 04:37:00;;;;;;;1.2;1.2;;;;;;;7.9;100.0;99320;;;;
2022/09/28 04:38:00;;;;;;;1.2;1.2;;;;;;;7.8;100.0;99320;;;;
2022/09/28 04:39:00;;;;;;;1.2;1.2;;;;;;;7.8;100.0;99320;;;;
2022/09/28 04:40:00;;;;;;;1.2;1.2;;;;;;;7.8;100.0;99320;;;;
2022/09/28 04:41:00;;;;;;;1.2;1.2;;;;;;;7.8;100.0;99320;;;;
2022/09/28 04:42:00;;;;;;;1.2;1.2;;;;;;;7.8;100.0;99320;;;;
2022/09/28 04:43:00;;;;;;;1.2;1.2;;;;;;;7.8;100.0;99320;;;;
2022/09/28 04:44:00;;;;;;;1.5;1.5;;;;;;;7.9;100.0;99320;;;;
2022/09/28 04:45:01;;;;;;;1.5;1.5;;;;;;;7.9;100.0;99320;;;;
2022/09/28 04:46:01;;;;;;;1.5;1.5;;;;;;;7.9;100.0;99320;;;;
2022/09/28 04:47:05;;;;;;;1.5;1.5;;;;;;;7.9;100.0;99320;;;;
2022/09/28 04:48:00;;;;;;;1.5;1.5;;;;;;;7.9;100.0;99320;;;;
2022/09/28 04:49:00;;;;;;;1.5;1.5;;;;;;;7.9;100.0;99320;;;;
2022/09/28 04:50:00;;;;;;;1.5;1.5;;;;;;;7.8;100.0;99320;;;;
2022/09/28 04:51:00;;;;;;;1.5;1.5;;;;;;;7.8;100.0;99320;;;;
2022/09/28 04:52:00;;;;;;;1.5;1.5;;;;;;;7.8;100.0;99320;;;;
2022/09/28 04:53:00;;;;;;;1.5;1.5;;;;;;;7.8;100.0;99320;;;;
2022/09/28 04:54:00;;;;;;;1.5;1.5;;;;;;;7.7;100.0;99320;;;;
2022/09/28 04:55:00;;;;;;;1.5;1.5;;;;;;;7.7;100.0;99320;;;;
2022/09/28 04:56:01;;;;;;;1.5;1.5;;;;;;;7.7;100.0;99320;;;;
2022/09/28 04:57:02;;;;;;;1.5;1.5;;;;;;;7.7;100.0;99320;;;;
2022/09/28 04:58:02;;;;;;;1.5;1.5;;;;;;;7.7;100.0;99330;;;;
2022/09/28 04:59:00;;;;;;;1.5;1.5;;;;;;;7.7;100.0;99330;;;;
2022/09/28 05:00:00;;;;;;;1.5;1.5;;;;;;;7.8;100.0;99330;;;;
2022/09/28 05:01:02;;;;;;;1.5;1.5;;;;;;;7.8;100.0;99330;;;;
2022/09/28 05:02:00;;;;;;;1.5;1.5;;;;;;;7.6;100.0;99330;;;;
2022/09/28 05:03:00;;;;;;;1.5;1.5;;;;;;;7.6;100.0;99330;;;;
2022/09/28 05:04:00;;;;;;;1.3;1.3;;;;;;;7.6;100.0;99330;;;;
2022/09/28 05:05:00;;;;;;;1.3;1.3;;;;;;;7.6;100.0;99330;;;;
2022/09/28 05:06:00;;;;;;;1.3;1.3;;;;;;;7.7;100.0;99330;;;;
2022/09/28 05:07:00;;;;;;;1.3;1.3;;;;;;;7.7;100.0;99330;;;;
2022/09/28 05:08:00;;;;;;;1.3;1.3;;;;;;;7.7;100.0;99330;;;;
2022/09/28 05:09:00;;;;;;;1.3;1.3;;;;;;;7.7;100.0;99330;;;;
2022/09/28 05:10:00;;;;;;;1.3;1.3;;;;;;;7.5;100.0;99340;;;;
2022/09/28 05:11:01;;;;;;;1.3;1.3;;;;;;;7.5;100.0;99340;;;;
2022/09/28 05:12:00;;;;;;;1.3;1.3;;;;;;;7.5;100.0;99340;;;;
2022/09/28 05:13:00;;;;;;;1.3;1.3;;;;;;;7.5;100.0;99340;;;;
2022/09/28 05:14:00;;;;;;;1.3;1.3;;;;;;;7.7;100.0;99340;;;;
2022/09/28 05:15:00;;;;;;;1.3;1.3;;;;;;;7.7;100.0;99340;;;;
2022/09/28 05:16:05;;;;;;;1.3;1.3;;;;;;;7.7;100.0;99340;;;;
2022/09/28 05:17:01;;;;;;;1.3;1.3;;;;;;;7.7;100.0;99340;;;;
2022/09/28 05:18:00;;;;;;;1.3;1.3;;;;;;;7.6;100.0;99340;;;;
2022/09/28 05:19:00;;;;;;;1.3;1.3;;;;;;;7.6;100.0;99340;;;;
2022/09/28 05:20:01;;;;;;;1.3;1.3;;;;;;;7.7;100.0;99340;;;;
2022/09/28 05:21:00;;;;;;;1.3;1.3;;;;;;;7.7;100.0;99340;;;;
2022/09/28 05:22:03;;;;;;;1.3;1.3;;;;;;;7.6;100.0;99340;;;;
2022/09/28 05:23:00;;;;;;;1.3;1.3;;;;;;;7.6;100.0;99340;;;;
2022/09/28 05:24:00;;;;;;;1.4;1.4;;;;;;;7.7;100.0;99350;;;;
2022/09/28 05:25:01;;;;;;;1.4;1.4;;;;;;;7.7;100.0;99350;;;;
2022/09/28 05:26:00;;;;;;;1.4;1.4;;;;;;;7.6;100.0;99340;;;;
2022/09/28 05:27:00;;;;;;;1.4;1.4;;;;;;;7.6;100.0;99340;;;;
2022/09/28 05:28:02;;;;;;;1.4;1.4;;;;;;;7.7;100.0;99340;;;;
2022/09/28 05:29:00;;;;;;;1.4;1.4;;;;;;;7.7;100.0;99340;;;;
2022/09/28 05:30:00;;;;;;;1.4;1.4;;;;;;;7.7;100.0;99340;;;;
2022/09/28 05:31:00;;;;;;;1.4;1.4;;;;;;;7.7;100.0;99340;;;;
2022/09/28 05:32:00;;;;;;;1.4;1.4;;;;;;;7.7;100.0;99340;;;;
2022/09/28 05:33:00;;;;;;;1.4;1.4;;;;;;;7.7;100.0;99340;;;;
2022/09/28 05:34:00;;;;;;;1.4;1.4;;;;;;;7.7;100.0;99340;;;;
2022/09/28 05:35:00;;;;;;;1.4;1.4;;;;;;;7.7;100.0;99340;;;;
2022/09/28 05:36:01;;;;;;;1.4;1.4;;;;;;;7.6;100.0;99340;;;;
2022/09/28 05:37:00;;;;;;;1.4;1.4;;;;;;;7.6;100.0;99340;;;;
2022/09/28 05:38:02;;;;;;;1.4;1.4;;;;;;;7.6;100.0;99340;;;;
2022/09/28 05:39:02;;;;;;;1.4;1.4;;;;;;;7.6;100.0;99340;;;;
2022/09/28 05:40:00;;;;;;;1.4;1.4;;;;;;;7.6;100.0;99340;;;;
2022/09/28 05:41:06;;;;;;;1.4;1.4;;;;;;;7.6;100.0;99340;;;;
2022/09/28 05:42:00;;;;;;;1.4;1.4;;;;;;;7.5;100.0;99340;;;;
2022/09/28 05:43:01;;;;;;;1.4;1.4;;;;;;;7.5;100.0;99340;;;;
2022/09/28 05:44:00;;;;;;;1.3;1.3;;;;;;;7.4;100.0;99340;;;;
2022/09/28 05:45:00;;;;;;;1.3;1.3;;;;;;;7.4;100.0;99340;;;;
2022/09/28 05:46:00;;;;;;;1.3;1.3;;;;;;;7.5;100.0;99350;;;;
2022/09/28 05:47:00;;;;;;;1.3;1.3;;;;;;;7.5;100.0;99350;;;;
2022/09/28 05:48:00;;;;;;;1.3;1.3;;;;;;;7.5;100.0;99340;;;;
2022/09/28 05:49:00;;;;;;;1.3;1.3;;;;;;;7.5;100.0;99340;;;;
2022/09/28 05:50:00;;;;;;;1.3;1.3;;;;;;;7.4;100.0;99340;;;;
2022/09/28 05:51:00;;;;;;;1.3;1.3;;;;;;;7.4;100.0;99340;;;;
2022/09/28 05:52:00;;;;;;;1.3;1.3;;;;;;;7.5;100.0;99350;;;;
2022/09/28 05:53:01;;;;;;;1.3;1.3;;;;;;;7.5;100.0;99350;;;;
2022/09/28 05:54:10;;;;;;;1.3;1.3;;;;;;;7.6;100.0;99350;;;;
2022/09/28 05:55:01;;;;;;;1.3;1.3;;;;;;;7.6;100.0;99350;;;;
2022/09/28 05:56:00;;;;;;;1.3;1.3;;;;;;;7.6;100.0;99350;;;;
2022/09/28 05:57:00;;;;;;;1.3;1.3;;;;;;;7.6;100.0;99350;;;;
2022/09/28 05:58:01;;;;;;;1.3;1.3;;;;;;;7.6;100.0;99350;;;;
2022/09/28 05:59:00;;;;;;;1.3;1.3;;;;;;;7.6;100.0;99350;;;;
2022/09/28 06:00:00;;;;;;;1.3;1.3;;;;;;;7.6;100.0;99360;;;;
2022/09/28 06:01:00;;;;;;;1.3;1.3;;;;;;;7.6;100.0;99360;;;;
2022/09/28 06:02:00;;;;;;;1.3;1.3;;;;;;;7.6;100.0;99350;;;;
2022/09/28 06:03:06;;;;;;;1.3;1.3;;;;;;;7.6;100.0;99360;;;;
2022/09/28 06:04:00;;;;;;;5.4;3.2;;;;;;;7.6;100.0;99360;;;;
2022/09/28 06:05:00;;;;;;;5.4;3.2;;;;;;;7.6;100.0;99360;;;;
2022/09/28 06:06:01;;;;;;;5.4;3.2;;;;;;;7.7;100.0;99360;;;;
2022/09/28 06:07:00;;;;;;;5.4;3.2;;;;;;;7.7;100.0;99360;;;;
2022/09/28 06:08:00;;;;;;;5.4;3.2;;;;;;;7.7;100.0;99360;;;;
2022/09/28 06:09:00;;;;;;;5.4;3.2;;;;;;;7.7;100.0;99360;;;;
2022/09/28 06:10:00;;;;;;;5.4;3.2;;;;;;;7.7;100.0;99360;;;;
2022/09/28 06:11:00;;;;;;;5.4;3.2;;;;;;;7.7;100.0;99360;;;;
2022/09/28 06:12:00;;;;;;;5.4;3.2;;;;;;;7.8;100.0;99360;;;;
2022/09/28 06:13:00;;;;;;;5.4;3.2;;;;;;;7.8;100.0;99360;;;;
2022/09/28 06:14:00;;;;;;;5.4;3.2;;;;;;;7.9;100.0;99360;;;;
2022/09/28 06:15:00;;;;;;;5.4;3.2;;;;;;;7.9;100.0;99360;;;;
2022/09/28 06:16:03;;;;;;;5.4;3.2;;;;;;;7.9;100.0;99360;;;;
2022/09/28 06:17:00;;;;;;;5.4;3.2;;;;;;;7.9;100.0;99360;;;;
2022/09/28 06:18:01;;;;;;;5.4;3.2;;;;;;;7.9;100.0;99370;;;;
2022/09/28 06:19:00;;;;;;;5.4;3.2;;;;;;;7.9;100.0;99370;;;;
2022/09/28 06:20:00;;;;;;;5.4;3.2;;;;;;;7.8;100.0;99370;;;;
2022/09/28 06:21:01;;;;;;;5.4;3.2;;;;;;;7.8;100.0;99370;;;;
2022/09/28 06:22:00;;;;;;;5.4;3.2;;;;;;;7.8;100.0;99370;;;;
2022/09/28 06:23:00;;;;;;;5.4;3.2;;;;;;;7.8;100.0;99370;;;;
2022/09/28 06:24:00;;;;;;;1.2;1.2;;;;;;;8.0;100.0;99370;;;;
2022/09/28 06:25:00;;;;;;;1.2;1.2;;;;;;;8.0;100.0;99370;;;;
2022/09/28 06:26:00;;;;;;;1.2;1.2;;;;;;;7.8;100.0;99370;;;;
2022/09/28 06:27:00;;;;;;;1.2;1.2;;;;;;;7.8;100.0;99370;;;;
2022/09/28 06:28:01;;;;;;;1.2;1.2;;;;;;;7.9;100.0;99370;;;;
2022/09/28 06:29:02;;;;;;;1.2;1.2;;;;;;;7.9;100.0;99370;;;;
2022/09/28 06:30:01;;;;;;;1.2;1.2;;;;;;;7.9;100.0;99380;;;;
2022/09/28 06:31:00;;;;;;;1.2;1.2;;;;;;;7.9;100.0;99380;;;;
2022/09/28 06:32:00;;;;;;;1.2;1.2;;;;;;;8.0;100.0;99370;;;;
2022/09/28 06:33:00;;;;;;;1.2;1.2;;;;;;;8.0;100.0;99370;;;;
2022/09/28 06:34:00;;;;;;;1.2;1.2;;;;;;;8.0;100.0;99380;;;;
2022/09/28 06:35:00;;;;;;;1.2;1.2;;;;;;;8.0;100.0;99380;;;;
2022/09/28 06:36:00;;;;;;;1.2;1.2;;;;;;;8.1;100.0;99380;;;;
2022/09/28 06:37:02;;;;;;;1.2;1.2;;;;;;;8.1;100.0;99380;;;;
2022/09/28 06:38:00;;;;;;;1.2;1.2;;;;;;;8.1;100.0;99390;;;;
2022/09/28 06:39:00;;;;;;;1.2;1.2;;;;;;;8.1;100.0;99390;;;;